sensor_id;sensor_type;location;lat;lon;timestamp;pressure;altitude;pressure_sealevel;temperature;humidity
76632;BME280;65526;48.578;-4.520;2023-04-03T00:00:57;102643.53;;;9.23;86.79
76632;BME280;65526;48.578;-4.520;2023-04-03T00:03:24;102698.19;;;9.23;86.86
76632;BME280;65526;48.578;-4.520;2023-04-03T00:05:50;102672.09;;;9.24;86.65
76632;BME280;65526;48.578;-4.520;2023-04-03T00:08:17;102105.13;;;5.98;86.23
76632;BME280;65526;48.578;-4.520;2023-04-03T00:10:43;102637.69;;;9.25;86.67
76632;BME280;65526;48.578;-4.520;2023-04-03T00:13:10;102351.66;;;7.36;86.55
76632;BME280;65526;48.578;-4.520;2023-04-03T00:15:37;102647.63;;;9.31;86.74
76632;BME280;65526;48.578;-4.520;2023-04-03T00:18:04;101828.03;;;4.63;86.16
76632;BME280;65526;48.578;-4.520;2023-04-03T00:20:31;102555.69;;;8.95;86.50
76632;BME280;65526;48.578;-4.520;2023-04-03T00:22:57;102661.16;;;9.37;86.50
76632;BME280;65526;48.578;-4.520;2023-04-03T00:25:24;102626.19;;;9.36;86.66
76632;BME280;65526;48.578;-4.520;2023-04-03T00:27:51;102182.03;;;6.54;86.57
76632;BME280;65526;48.578;-4.520;2023-04-03T00:30:19;102061.09;;;6.17;86.41
76632;BME280;65526;48.578;-4.520;2023-04-03T00:32:48;101850.97;;;4.44;86.15
76632;BME280;65526;48.578;-4.520;2023-04-03T00:35:14;101862.91;;;4.78;86.09
76632;BME280;65526;48.578;-4.520;2023-04-03T00:37:44;102277.63;;;7.56;86.10
76632;BME280;65526;48.578;-4.520;2023-04-03T00:40:12;101832.00;;;4.91;86.12
76632;BME280;65526;48.578;-4.520;2023-04-03T00:42:41;101876.69;;;4.73;86.16
76632;BME280;65526;48.578;-4.520;2023-04-03T00:45:24;102109.22;;;6.06;85.79
76632;BME280;65526;48.578;-4.520;2023-04-03T00:47:51;102034.16;;;6.04;86.22
76632;BME280;65526;48.578;-4.520;2023-04-03T00:50:18;102293.28;;;7.37;86.13
76632;BME280;65526;48.578;-4.520;2023-04-03T00:52:45;102588.59;;;9.49;86.48
76632;BME280;65526;48.578;-4.520;2023-04-03T00:55:14;102628.56;;;9.48;86.75
76632;BME280;65526;48.578;-4.520;2023-04-03T00:57:41;102457.78;;;8.47;86.69
76632;BME280;65526;48.578;-4.520;2023-04-03T01:00:11;102580.31;;;9.44;86.56
76632;BME280;65526;48.578;-4.520;2023-04-03T01:02:38;102544.16;;;9.06;86.63
76632;BME280;65526;48.578;-4.520;2023-04-03T01:05:09;101627.88;;;3.81;86.16
76632;BME280;65526;48.578;-4.520;2023-04-03T01:07:37;102327.28;;;7.72;86.24
76632;BME280;65526;48.578;-4.520;2023-04-03T01:10:09;101716.16;;;4.33;86.15
76632;BME280;65526;48.578;-4.520;2023-04-03T01:12:39;101804.91;;;4.59;86.17
76632;BME280;65526;48.578;-4.520;2023-04-03T01:15:10;102259.41;;;7.22;86.31
76632;BME280;65526;48.578;-4.520;2023-04-03T01:17:40;102582.50;;;9.47;86.40
76632;BME280;65526;48.578;-4.520;2023-04-03T01:25:38;101645.44;;;3.90;85.88
76632;BME280;65526;48.578;-4.520;2023-04-03T01:28:07;102218.34;;;7.39;86.44
76632;BME280;65526;48.578;-4.520;2023-04-03T01:30:43;102528.88;;;9.09;86.61
76632;BME280;65526;48.578;-4.520;2023-04-03T01:33:12;102613.91;;;9.19;86.34
76632;BME280;65526;48.578;-4.520;2023-04-03T01:35:38;102559.63;;;9.12;86.80
76632;BME280;65526;48.578;-4.520;2023-04-03T01:38:05;102087.09;;;6.45;86.57
76632;BME280;65526;48.578;-4.520;2023-04-03T01:40:32;102142.34;;;6.73;86.79
76632;BME280;65526;48.578;-4.520;2023-04-03T01:42:59;102294.59;;;7.45;86.37
76632;BME280;65526;48.578;-4.520;2023-04-03T01:45:25;102516.53;;;8.96;86.93
76632;BME280;65526;48.578;-4.520;2023-04-03T01:47:52;102263.50;;;6.95;87.05
76632;BME280;65526;48.578;-4.520;2023-04-03T01:50:18;102563.44;;;8.93;87.06
76632;BME280;65526;48.578;-4.520;2023-04-03T01:52:45;101968.94;;;5.35;86.73
76632;BME280;65526;48.578;-4.520;2023-04-03T01:55:11;102349.00;;;7.54;86.97
76632;BME280;65526;48.578;-4.520;2023-04-03T01:57:38;102090.91;;;6.15;86.75
76632;BME280;65526;48.578;-4.520;2023-04-03T02:00:05;102282.94;;;7.19;86.91
76632;BME280;65526;48.578;-4.520;2023-04-03T02:02:39;102506.16;;;8.83;87.14
76632;BME280;65526;48.578;-4.520;2023-04-03T02:05:06;102549.47;;;8.79;87.10
76632;BME280;65526;48.578;-4.520;2023-04-03T02:07:32;102538.44;;;8.74;87.30
76632;BME280;65526;48.578;-4.520;2023-04-03T02:09:59;101767.53;;;3.89;86.53
76632;BME280;65526;48.578;-4.520;2023-04-03T02:12:25;102142.75;;;6.23;86.71
76632;BME280;65526;48.578;-4.520;2023-04-03T02:14:52;102295.22;;;7.37;87.38
76632;BME280;65526;48.578;-4.520;2023-04-03T02:17:19;102009.31;;;5.59;86.85
76632;BME280;65526;48.578;-4.520;2023-04-03T02:19:46;102103.81;;;5.75;87.23
76632;BME280;65526;48.578;-4.520;2023-04-03T02:22:12;102211.97;;;6.75;87.30
76632;BME280;65526;48.578;-4.520;2023-04-03T02:24:39;101645.16;;;2.97;87.12
76632;BME280;65526;48.578;-4.520;2023-04-03T02:27:06;101940.41;;;5.10;87.13
76632;BME280;65526;48.578;-4.520;2023-04-03T02:29:32;101716.75;;;3.51;86.51
76632;BME280;65526;48.578;-4.520;2023-04-03T02:31:59;101957.78;;;5.06;87.15
76632;BME280;65526;48.578;-4.520;2023-04-03T02:34:26;101574.94;;;2.75;86.91
76632;BME280;65526;48.578;-4.520;2023-04-03T02:36:53;102508.16;;;8.54;87.26
76632;BME280;65526;48.578;-4.520;2023-04-03T02:39:19;101968.59;;;4.97;87.21
76632;BME280;65526;48.578;-4.520;2023-04-03T02:41:47;102339.75;;;7.69;87.54
76632;BME280;65526;48.578;-4.520;2023-04-03T02:44:19;101914.72;;;4.66;87.29
76632;BME280;65526;48.578;-4.520;2023-04-03T02:46:46;102324.88;;;7.31;87.52
76632;BME280;65526;48.578;-4.520;2023-04-03T02:49:12;101543.63;;;2.82;87.50
76632;BME280;65526;48.578;-4.520;2023-04-03T02:51:38;102080.00;;;5.40;87.28
76632;BME280;65526;48.578;-4.520;2023-04-03T02:54:06;101746.69;;;3.68;87.28
76632;BME280;65526;48.578;-4.520;2023-04-03T02:56:34;102073.31;;;5.56;86.94
76632;BME280;65526;48.578;-4.520;2023-04-03T02:59:01;101910.13;;;5.10;87.21
76632;BME280;65526;48.578;-4.520;2023-04-03T03:01:28;101997.19;;;5.06;86.75
76632;BME280;65526;48.578;-4.520;2023-04-03T03:03:58;102206.06;;;6.92;87.72
76632;BME280;65526;48.578;-4.520;2023-04-03T03:06:26;102512.25;;;8.27;87.48
76632;BME280;65526;48.578;-4.520;2023-04-03T03:08:52;101952.94;;;5.37;86.80
76632;BME280;65526;48.578;-4.520;2023-04-03T03:11:19;102117.03;;;6.27;87.20
76632;BME280;65526;48.578;-4.520;2023-04-03T03:13:46;102524.78;;;8.54;87.49
76632;BME280;65526;48.578;-4.520;2023-04-03T03:16:12;102156.69;;;6.03;86.80
76632;BME280;65526;48.578;-4.520;2023-04-03T03:18:39;102077.13;;;5.66;86.68
76632;BME280;65526;48.578;-4.520;2023-04-03T03:21:05;102364.13;;;7.33;86.91
76632;BME280;65526;48.578;-4.520;2023-04-03T03:23:33;102041.47;;;5.30;86.70
76632;BME280;65526;48.578;-4.520;2023-04-03T03:26:07;102526.78;;;8.48;87.00
76632;BME280;65526;48.578;-4.520;2023-04-03T03:28:35;102462.72;;;8.50;87.07
76632;BME280;65526;48.578;-4.520;2023-04-03T03:31:03;101852.19;;;4.76;86.39
76632;BME280;65526;48.578;-4.520;2023-04-03T03:33:31;102068.59;;;5.62;86.64
76632;BME280;65526;48.578;-4.520;2023-04-03T03:35:59;102198.44;;;6.35;86.60
76632;BME280;65526;48.578;-4.520;2023-04-03T03:38:25;101768.88;;;3.91;86.25
76632;BME280;65526;48.578;-4.520;2023-04-03T03:40:53;102459.97;;;8.50;86.64
76632;BME280;65526;48.578;-4.520;2023-04-03T03:43:21;101848.59;;;4.76;86.28
76632;BME280;65526;48.578;-4.520;2023-04-03T03:45:52;101860.66;;;4.90;86.21
76632;BME280;65526;48.578;-4.520;2023-04-03T03:48:20;101525.22;;;2.87;86.00
76632;BME280;65526;48.578;-4.520;2023-04-03T03:50:48;102033.03;;;5.61;86.10
76632;BME280;65526;48.578;-4.520;2023-04-03T03:53:14;101615.78;;;2.92;86.11
76632;BME280;65526;48.578;-4.520;2023-04-03T03:55:42;102447.31;;;8.10;86.32
76632;BME280;65526;48.578;-4.520;2023-04-03T03:58:09;102142.34;;;6.73;86.26
76632;BME280;65526;48.578;-4.520;2023-04-03T04:00:36;101882.72;;;4.80;85.86
76632;BME280;65526;48.578;-4.520;2023-04-03T04:03:03;101694.28;;;4.08;85.65
76632;BME280;65526;48.578;-4.520;2023-04-03T04:05:31;102446.00;;;8.60;86.43
76632;BME280;65526;48.578;-4.520;2023-04-03T04:07:59;102198.41;;;6.79;86.07
76632;BME280;65526;48.578;-4.520;2023-04-03T04:10:26;102444.09;;;8.31;86.11
76632;BME280;65526;48.578;-4.520;2023-04-03T04:12:53;102068.19;;;5.84;86.12
76632;BME280;65526;48.578;-4.520;2023-04-03T04:15:22;102423.09;;;8.54;86.44
76632;BME280;65526;48.578;-4.520;2023-04-03T04:17:50;102114.69;;;6.11;86.21
76632;BME280;65526;48.578;-4.520;2023-04-03T04:20:17;101607.25;;;3.14;85.82
76632;BME280;65526;48.578;-4.520;2023-04-03T04:22:43;101807.69;;;4.54;86.29
76632;BME280;65526;48.578;-4.520;2023-04-03T04:25:10;102187.22;;;6.60;86.26
76632;BME280;65526;48.578;-4.520;2023-04-03T04:27:38;102074.34;;;6.49;86.22
76632;BME280;65526;48.578;-4.520;2023-04-03T04:30:06;101836.56;;;4.62;86.08
76632;BME280;65526;48.578;-4.520;2023-04-03T04:32:33;102162.72;;;6.83;86.47
76632;BME280;65526;48.578;-4.520;2023-04-03T04:35:00;102068.97;;;5.94;86.15
76632;BME280;65526;48.578;-4.520;2023-04-03T04:37:28;102115.47;;;6.84;86.40
76632;BME280;65526;48.578;-4.520;2023-04-03T04:39:55;101940.31;;;5.70;86.01
76632;BME280;65526;48.578;-4.520;2023-04-03T04:42:21;102083.75;;;6.14;86.06
76632;BME280;65526;48.578;-4.520;2023-04-03T04:44:49;102278.22;;;7.53;86.30
76632;BME280;65526;48.578;-4.520;2023-04-03T04:47:16;101892.28;;;4.93;85.83
76632;BME280;65526;48.578;-4.520;2023-04-03T04:49:43;102221.72;;;7.31;86.35
76632;BME280;65526;48.578;-4.520;2023-04-03T04:52:10;102476.50;;;8.60;86.46
76632;BME280;65526;48.578;-4.520;2023-04-03T04:54:39;102240.09;;;7.16;86.40
76632;BME280;65526;48.578;-4.520;2023-04-03T04:57:05;101497.03;;;2.51;85.52
76632;BME280;65526;48.578;-4.520;2023-04-03T04:59:32;102424.72;;;8.55;86.06
76632;BME280;65526;48.578;-4.520;2023-04-03T05:01:58;101988.63;;;5.62;85.85
76632;BME280;65526;48.578;-4.520;2023-04-03T05:04:26;102393.72;;;8.53;86.11
76632;BME280;65526;48.578;-4.520;2023-04-03T05:06:59;102006.16;;;5.32;85.73
76632;BME280;65526;48.578;-4.520;2023-04-03T05:09:28;102394.53;;;8.01;85.72
76632;BME280;65526;48.578;-4.520;2023-04-03T05:11:55;102456.69;;;8.48;85.79
76632;BME280;65526;48.578;-4.520;2023-04-03T05:14:25;102050.44;;;6.39;85.49
76632;BME280;65526;48.578;-4.520;2023-04-03T05:16:52;102261.47;;;7.40;85.39
76632;BME280;65526;48.578;-4.520;2023-04-03T05:19:21;101831.25;;;4.75;85.17
76632;BME280;65526;48.578;-4.520;2023-04-03T05:21:48;101564.69;;;3.06;84.97
76632;BME280;65526;48.578;-4.520;2023-04-03T05:24:16;101919.22;;;5.06;85.28
76632;BME280;65526;48.578;-4.520;2023-04-03T05:26:43;102087.78;;;5.92;85.63
76632;BME280;65526;48.578;-4.520;2023-04-03T05:29:11;102049.44;;;5.91;85.56
76632;BME280;65526;48.578;-4.520;2023-04-03T05:31:38;102395.25;;;7.54;85.98
76632;BME280;65526;48.578;-4.520;2023-04-03T05:34:06;102412.41;;;7.85;86.23
76632;BME280;65526;48.578;-4.520;2023-04-03T05:36:36;102208.91;;;5.89;85.96
76632;BME280;65526;48.578;-4.520;2023-04-03T05:39:05;102406.69;;;7.71;86.60
76632;BME280;65526;48.578;-4.520;2023-04-03T05:41:35;102050.69;;;4.90;86.28
76632;BME280;65526;48.578;-4.520;2023-04-03T05:44:02;102535.78;;;7.52;86.52
76632;BME280;65526;48.578;-4.520;2023-04-03T05:46:28;102185.50;;;5.71;86.53
76632;BME280;65526;48.578;-4.520;2023-04-03T05:48:56;102170.69;;;5.52;86.75
76632;BME280;65526;48.578;-4.520;2023-04-03T05:51:28;102401.53;;;7.21;87.19
76632;BME280;65526;48.578;-4.520;2023-04-03T05:54:06;102408.75;;;7.16;87.25
76632;BME280;65526;48.578;-4.520;2023-04-03T05:56:35;102471.59;;;7.06;87.38
76632;BME280;65526;48.578;-4.520;2023-04-03T05:59:02;102245.06;;;5.77;87.06
76632;BME280;65526;48.578;-4.520;2023-04-03T06:01:28;102062.25;;;4.97;87.21
76632;BME280;65526;48.578;-4.520;2023-04-03T06:03:56;101920.69;;;3.43;87.12
76632;BME280;65526;48.578;-4.520;2023-04-03T06:06:25;101997.69;;;3.93;87.25
76632;BME280;65526;48.578;-4.520;2023-04-03T06:08:51;102193.06;;;5.30;87.49
76632;BME280;65526;48.578;-4.520;2023-04-03T06:11:18;102485.19;;;6.92;87.21
76632;BME280;65526;48.578;-4.520;2023-04-03T06:13:44;102474.97;;;6.93;87.24
76632;BME280;65526;48.578;-4.520;2023-04-03T06:16:18;102429.69;;;6.73;86.78
76632;BME280;65526;48.578;-4.520;2023-04-03T06:18:45;101668.00;;;1.59;86.97
76632;BME280;65526;48.578;-4.520;2023-04-03T06:21:11;101648.81;;;1.64;86.79
76632;BME280;65526;48.578;-4.520;2023-04-03T06:23:38;101962.47;;;3.50;86.97
76632;BME280;65526;48.578;-4.520;2023-04-03T06:26:05;102149.28;;;4.93;87.26
76632;BME280;65526;48.578;-4.520;2023-04-03T06:28:31;101904.91;;;2.98;87.21
76632;BME280;65526;48.578;-4.520;2023-04-03T06:30:58;102478.91;;;6.71;87.41
76632;BME280;65526;48.578;-4.520;2023-04-03T06:33:25;102250.41;;;5.08;87.77
76632;BME280;65526;48.578;-4.520;2023-04-03T06:35:58;101668.03;;;1.69;86.99
76632;BME280;65526;48.578;-4.520;2023-04-03T06:38:25;102078.03;;;4.21;87.27
76632;BME280;65526;48.578;-4.520;2023-04-03T06:40:51;101911.56;;;3.22;87.06
76632;BME280;65526;48.578;-4.520;2023-04-03T06:43:18;102075.28;;;4.21;87.13
76632;BME280;65526;48.578;-4.520;2023-04-03T06:45:45;102212.66;;;4.93;87.32
76632;BME280;65526;48.578;-4.520;2023-04-03T06:48:12;101676.25;;;1.69;86.86
76632;BME280;65526;48.578;-4.520;2023-04-03T06:50:39;101829.44;;;3.15;86.95
76632;BME280;65526;48.578;-4.520;2023-04-03T06:53:05;102442.34;;;6.90;87.67
76632;BME280;65526;48.578;-4.520;2023-04-03T06:55:33;101750.53;;;2.50;87.06
76632;BME280;65526;48.578;-4.520;2023-04-03T06:57:59;102393.06;;;6.53;87.37
76632;BME280;65526;48.578;-4.520;2023-04-03T07:00:26;102144.28;;;5.21;86.92
76632;BME280;65526;48.578;-4.520;2023-04-03T07:02:53;101942.66;;;3.53;86.56
76632;BME280;65526;48.578;-4.520;2023-04-03T07:05:19;101615.50;;;1.97;86.41
76632;BME280;65526;48.578;-4.520;2023-04-03T07:07:46;102437.00;;;7.13;86.95
76632;BME280;65526;48.578;-4.520;2023-04-03T07:10:12;101903.91;;;3.54;86.19
76632;BME280;65526;48.578;-4.520;2023-04-03T07:12:39;101933.03;;;4.11;86.38
76632;BME280;65526;48.578;-4.520;2023-04-03T07:15:06;101563.59;;;1.55;86.00
76632;BME280;65526;48.578;-4.520;2023-04-03T07:17:33;101653.09;;;2.17;86.31
76632;BME280;65526;48.578;-4.520;2023-04-03T07:19:59;102082.03;;;5.14;86.53
76632;BME280;65526;48.578;-4.520;2023-04-03T07:22:31;101618.84;;;2.30;86.32
76632;BME280;65526;48.578;-4.520;2023-04-03T07:24:57;102301.72;;;6.34;86.59
76632;BME280;65526;48.578;-4.520;2023-04-03T07:27:25;102407.25;;;7.39;86.64
76632;BME280;65526;48.578;-4.520;2023-04-03T07:29:51;101744.56;;;2.78;86.17
76632;BME280;65526;48.578;-4.520;2023-04-03T07:32:18;101815.94;;;3.80;86.20
76632;BME280;65526;48.578;-4.520;2023-04-03T07:34:44;102491.53;;;7.52;86.26
76632;BME280;65526;48.578;-4.520;2023-04-03T07:37:10;102074.19;;;5.47;86.08
76632;BME280;65526;48.578;-4.520;2023-04-03T07:39:37;101927.22;;;4.28;85.75
76632;BME280;65526;48.578;-4.520;2023-04-03T07:42:03;102130.72;;;5.39;86.12
76632;BME280;65526;48.578;-4.520;2023-04-03T07:44:30;101667.72;;;2.68;85.57
76632;BME280;65526;48.578;-4.520;2023-04-03T07:46:57;101641.63;;;2.76;85.00
76632;BME280;65526;48.578;-4.520;2023-04-03T07:49:23;101966.19;;;4.65;85.75
76632;BME280;65526;48.578;-4.520;2023-04-03T07:51:50;101586.16;;;2.84;85.27
76632;BME280;65526;48.578;-4.520;2023-04-03T07:54:17;102458.56;;;7.89;85.69
76632;BME280;65526;48.578;-4.520;2023-04-03T07:56:43;101786.69;;;4.14;84.75
76632;BME280;65526;48.578;-4.520;2023-04-03T07:59:10;102251.47;;;6.37;84.92
76632;BME280;65526;48.578;-4.520;2023-04-03T08:01:37;101726.28;;;3.89;84.72
76632;BME280;65526;48.578;-4.520;2023-04-03T08:04:03;101971.88;;;4.99;84.40
76632;BME280;65526;48.578;-4.520;2023-04-03T08:06:31;102403.00;;;8.10;84.00
76632;BME280;65526;48.578;-4.520;2023-04-03T08:08:59;101936.25;;;5.13;83.79
76632;BME280;65526;48.578;-4.520;2023-04-03T08:11:25;102165.94;;;6.66;84.33
76632;BME280;65526;48.578;-4.520;2023-04-03T08:13:52;102313.88;;;7.26;84.42
76632;BME280;65526;48.578;-4.520;2023-04-03T08:16:20;102421.94;;;8.31;84.08
76632;BME280;65526;48.578;-4.520;2023-04-03T08:18:48;102076.31;;;5.60;83.34
76632;BME280;65526;48.578;-4.520;2023-04-03T08:21:14;102225.84;;;7.04;83.60
76632;BME280;65526;48.578;-4.520;2023-04-03T08:23:41;101882.63;;;4.95;82.88
76632;BME280;65526;48.578;-4.520;2023-04-03T08:26:13;102033.28;;;5.64;82.68
76632;BME280;65526;48.578;-4.520;2023-04-03T08:28:40;102120.75;;;6.52;83.30
76632;BME280;65526;48.578;-4.520;2023-04-03T08:31:10;101684.94;;;4.09;82.29
76632;BME280;65526;48.578;-4.520;2023-04-03T08:33:38;102234.50;;;6.93;81.48
76632;BME280;65526;48.578;-4.520;2023-04-03T08:36:07;101843.22;;;5.00;81.24
76632;BME280;65526;48.578;-4.520;2023-04-03T08:38:41;101947.00;;;5.14;80.96
76632;BME280;65526;48.578;-4.520;2023-04-03T08:41:25;102405.78;;;8.62;81.50
76632;BME280;65526;48.578;-4.520;2023-04-03T08:44:31;102099.84;;;6.69;81.25
76632;BME280;65526;48.578;-4.520;2023-04-03T08:52:10;101789.22;;;4.99;80.21
76632;BME280;65526;48.578;-4.520;2023-04-03T08:54:48;101853.59;;;5.13;79.37
76632;BME280;65526;48.578;-4.520;2023-04-03T08:57:16;102151.16;;;7.09;80.05
76632;BME280;65526;48.578;-4.520;2023-04-03T08:59:43;102010.38;;;6.08;79.39
76632;BME280;65526;48.578;-4.520;2023-04-03T09:02:30;102395.06;;;8.98;80.34
76632;BME280;65526;48.578;-4.520;2023-04-03T09:04:58;101984.34;;;6.48;80.74
76632;BME280;65526;48.578;-4.520;2023-04-03T09:08:14;101861.53;;;5.92;78.86
76632;BME280;65526;48.578;-4.520;2023-04-03T09:10:39;102451.25;;;9.28;79.78
76632;BME280;65526;48.578;-4.520;2023-04-03T09:15:55;101973.34;;;6.14;77.78
76632;BME280;65526;48.578;-4.520;2023-04-03T09:18:42;101828.72;;;5.91;79.20
76632;BME280;65526;48.578;-4.520;2023-04-03T09:21:31;101586.09;;;4.52;78.05
76632;BME280;65526;48.578;-4.520;2023-04-03T09:24:01;102088.09;;;7.35;77.94
76632;BME280;65526;48.578;-4.520;2023-04-03T09:29:02;101938.22;;;6.48;77.41
76632;BME280;65526;48.578;-4.520;2023-04-03T09:31:39;102111.25;;;7.87;77.85
76632;BME280;65526;48.578;-4.520;2023-04-03T09:34:29;102241.41;;;8.24;78.30
76632;BME280;65526;48.578;-4.520;2023-04-03T09:36:58;102022.94;;;7.48;77.34
76632;BME280;65526;48.578;-4.520;2023-04-03T09:39:29;101631.00;;;5.10;77.54
76632;BME280;65526;48.578;-4.520;2023-04-03T09:42:01;102360.72;;;9.64;79.00
76632;BME280;65526;48.578;-4.520;2023-04-03T09:44:35;101938.59;;;7.08;78.55
76632;BME280;65526;48.578;-4.520;2023-04-03T09:47:22;102352.84;;;9.71;78.59
76632;BME280;65526;48.578;-4.520;2023-04-03T09:52:48;102105.25;;;7.80;79.04
76632;BME280;65526;48.578;-4.520;2023-04-03T09:55:22;101892.97;;;6.68;78.13
76632;BME280;65526;48.578;-4.520;2023-04-03T09:57:59;101640.59;;;5.41;77.89
76632;BME280;65526;48.578;-4.520;2023-04-03T10:00:39;102021.31;;;7.84;77.21
76632;BME280;65526;48.578;-4.520;2023-04-03T10:03:24;101552.50;;;4.84;76.66
76632;BME280;65526;48.578;-4.520;2023-04-03T10:05:51;102368.75;;;9.66;76.41
76632;BME280;65526;48.578;-4.520;2023-04-03T10:08:27;101557.34;;;4.68;76.03
76632;BME280;65526;48.578;-4.520;2023-04-03T10:11:08;102154.47;;;8.77;77.77
76632;BME280;65526;48.578;-4.520;2023-04-03T10:13:36;101976.44;;;7.31;78.04
76632;BME280;65526;48.578;-4.520;2023-04-03T10:16:18;102048.00;;;7.75;76.56
76632;BME280;65526;48.578;-4.520;2023-04-03T10:21:40;102322.16;;;10.09;77.50
76632;BME280;65526;48.578;-4.520;2023-04-03T10:24:23;101586.47;;;5.69;76.04
76632;BME280;65526;48.578;-4.520;2023-04-03T10:35:21;102022.44;;;8.67;75.65
76632;BME280;65526;48.578;-4.520;2023-04-03T10:46:15;102324.03;;;10.54;74.31
76632;BME280;65526;48.578;-4.520;2023-04-03T10:48:56;101856.38;;;7.51;75.46
76632;BME280;65526;48.578;-4.520;2023-04-03T10:51:42;102374.06;;;10.54;74.57
76632;BME280;65526;48.578;-4.520;2023-04-03T10:54:15;102287.25;;;10.57;74.68
76632;BME280;65526;48.578;-4.520;2023-04-03T11:02:07;101794.66;;;7.83;74.34
76632;BME280;65526;48.578;-4.520;2023-04-03T11:04:36;101938.59;;;8.75;73.72
76632;BME280;65526;48.578;-4.520;2023-04-03T11:07:15;101565.56;;;6.24;74.18
76632;BME280;65526;48.578;-4.520;2023-04-03T11:09:46;101855.28;;;7.98;72.57
76632;BME280;65526;48.578;-4.520;2023-04-03T11:12:24;102033.97;;;9.29;71.55
76632;BME280;65526;48.578;-4.520;2023-04-03T11:14:53;101851.09;;;8.01;72.26
76632;BME280;65526;48.578;-4.520;2023-04-03T11:17:28;102196.03;;;10.23;73.18
76632;BME280;65526;48.578;-4.520;2023-04-03T11:20:28;101850.75;;;8.48;72.77
76632;BME280;65526;48.578;-4.520;2023-04-03T11:23:28;102256.88;;;10.97;74.11
76632;BME280;65526;48.578;-4.520;2023-04-03T11:26:15;101522.47;;;6.10;73.16
76632;BME280;65526;48.578;-4.520;2023-04-03T11:28:42;101934.66;;;8.49;74.78
76632;BME280;65526;48.578;-4.520;2023-04-03T11:34:08;102257.75;;;11.06;74.73
76632;BME280;65526;48.578;-4.520;2023-04-03T11:36:46;101801.75;;;7.89;73.75
76632;BME280;65526;48.578;-4.520;2023-04-03T11:39:23;101879.44;;;8.93;74.34
76632;BME280;65526;48.578;-4.520;2023-04-03T11:41:52;101783.19;;;7.89;74.76
76632;BME280;65526;48.578;-4.520;2023-04-03T11:44:30;102281.06;;;11.41;74.50
76632;BME280;65526;48.578;-4.520;2023-04-03T11:46:59;101528.69;;;6.80;73.13
76632;BME280;65526;48.578;-4.520;2023-04-03T12:05:56;101724.34;;;8.25;76.47
76632;BME280;65526;48.578;-4.520;2023-04-03T12:08:46;101356.66;;;6.06;75.08
76632;BME280;65526;48.578;-4.520;2023-04-03T12:11:14;102073.09;;;10.40;76.28
76632;BME280;65526;48.578;-4.520;2023-04-03T12:16:30;102212.81;;;11.43;76.15
76632;BME280;65526;48.578;-4.520;2023-04-03T12:19:01;102203.34;;;11.44;75.61
76632;BME280;65526;48.578;-4.520;2023-04-03T12:26:50;102211.72;;;11.53;74.30
76632;BME280;65526;48.578;-4.520;2023-04-03T12:35:34;102026.00;;;9.99;77.52
76632;BME280;65526;48.578;-4.520;2023-04-03T12:44:21;102190.09;;;11.50;73.00
76632;BME280;65526;48.578;-4.520;2023-04-03T12:46:52;102041.13;;;9.93;75.05
76632;BME280;65526;48.578;-4.520;2023-04-03T12:49:35;102192.78;;;11.33;75.28
76632;BME280;65526;48.578;-4.520;2023-04-03T12:52:16;101337.69;;;6.05;75.05
76632;BME280;65526;48.578;-4.520;2023-04-03T12:54:45;102208.78;;;11.27;75.46
76632;BME280;65526;48.578;-4.520;2023-04-03T12:57:19;102200.25;;;11.55;74.55
76632;BME280;65526;48.578;-4.520;2023-04-03T12:59:47;101760.44;;;8.47;73.48
76632;BME280;65526;48.578;-4.520;2023-04-03T13:02:25;101896.03;;;9.43;77.10
76632;BME280;65526;48.578;-4.520;2023-04-03T13:04:55;101775.19;;;8.56;74.50
76632;BME280;65526;48.578;-4.520;2023-04-03T13:07:30;101677.00;;;7.58;74.35
76632;BME280;65526;48.578;-4.520;2023-04-03T13:10:04;102191.63;;;11.34;75.58
76632;BME280;65526;48.578;-4.520;2023-04-03T13:12:57;101514.38;;;7.19;73.42
76632;BME280;65526;48.578;-4.520;2023-04-03T13:15:28;102220.19;;;11.48;74.78
76632;BME280;65526;48.578;-4.520;2023-04-03T13:17:56;101520.31;;;6.85;73.03
76632;BME280;65526;48.578;-4.520;2023-04-03T13:20:29;101738.81;;;8.71;72.81
76632;BME280;65526;48.578;-4.520;2023-04-03T13:23:06;101681.88;;;8.16;74.40
76632;BME280;65526;48.578;-4.520;2023-04-03T13:25:37;101780.69;;;8.70;73.84
76632;BME280;65526;48.578;-4.520;2023-04-03T13:28:10;101896.09;;;9.51;75.39
76632;BME280;65526;48.578;-4.520;2023-04-03T13:30:40;102217.25;;;11.75;73.76
76632;BME280;65526;48.578;-4.520;2023-04-03T13:33:25;101785.03;;;8.62;73.59
76632;BME280;65526;48.578;-4.520;2023-04-03T13:36:00;101268.00;;;5.99;72.45
76632;BME280;65526;48.578;-4.520;2023-04-03T13:38:30;101823.19;;;9.37;73.09
76632;BME280;65526;48.578;-4.520;2023-04-03T13:41:28;101695.63;;;8.70;73.33
76632;BME280;65526;48.578;-4.520;2023-04-03T13:43:55;101626.91;;;8.23;73.27
76632;BME280;65526;48.578;-4.520;2023-04-03T13:46:25;101525.00;;;7.53;70.93
76632;BME280;65526;48.578;-4.520;2023-04-03T13:48:55;101768.16;;;8.86;72.58
76632;BME280;65526;48.578;-4.520;2023-04-03T13:51:27;102156.69;;;11.59;72.45
76632;BME280;65526;48.578;-4.520;2023-04-03T13:53:57;102199.13;;;11.56;73.14
76632;BME280;65526;48.578;-4.520;2023-04-03T13:56:37;102148.69;;;11.57;72.19
76632;BME280;65526;48.578;-4.520;2023-04-03T14:01:53;102008.69;;;10.69;74.17
76632;BME280;65526;48.578;-4.520;2023-04-03T14:04:26;101886.34;;;9.76;71.17
76632;BME280;65526;48.578;-4.520;2023-04-03T14:06:55;102169.91;;;11.75;72.43
76632;BME280;65526;48.578;-4.520;2023-04-03T14:09:23;101931.25;;;10.01;72.51
76632;BME280;65526;48.578;-4.520;2023-04-03T14:11:54;101593.66;;;8.23;73.52
76632;BME280;65526;48.578;-4.520;2023-04-03T14:14:26;102160.03;;;11.69;72.47
76632;BME280;65526;48.578;-4.520;2023-04-03T14:16:55;101609.91;;;8.52;72.42
76632;BME280;65526;48.578;-4.520;2023-04-03T14:19:25;101316.91;;;6.62;71.92
76632;BME280;65526;48.578;-4.520;2023-04-03T14:21:55;102085.22;;;11.37;73.05
76632;BME280;65526;48.578;-4.520;2023-04-03T14:24:22;101262.97;;;6.15;73.17
76632;BME280;65526;48.578;-4.520;2023-04-03T14:26:51;101891.78;;;10.35;74.40
76632;BME280;65526;48.578;-4.520;2023-04-03T14:29:19;101806.78;;;9.72;73.51
76632;BME280;65526;48.578;-4.520;2023-04-03T14:31:47;101189.25;;;6.29;72.01